Time,TemperatureF,DewpointF,PressureIn,WindDirection,WindDirectionDegrees,WindSpeedMPH,WindSpeedGustMPH,Humidity,HourlyPrecipIn,Conditions,Clouds,dailyrainin,SoftwareType,DateUTC
2013-03-10 00:03:00,50.6,37.2,22.05,ESE,109,0.0,0.0,60,0.00,,---,0.00,VWS V13.01,2013-03-10 08:03:00,
2013-03-10 00:08:00,50.3,37.4,22.06,ESE,109,0.0,3.0,61,0.00,,---,0.00,VWS V13.01,2013-03-10 08:08:00,
2013-03-10 00:13:00,49.8,37.3,22.06,ESE,109,0.0,3.0,62,0.00,,---,0.00,VWS V13.01,2013-03-10 08:13:00,
2013-03-10 00:18:00,49.3,37.2,22.06,ESE,109,0.0,3.0,63,0.00,,---,0.00,VWS V13.01,2013-03-10 08:18:00,
2013-03-10 00:23:00,49.1,37.1,22.06,ESE,109,0.0,3.0,63,0.00,,---,0.00,VWS V13.01,2013-03-10 08:23:00,
2013-03-10 00:28:00,48.7,37.1,22.07,ESE,109,0.0,3.0,64,0.00,,---,0.00,VWS V13.01,2013-03-10 08:28:00,
2013-03-10 00:33:00,48.3,37.1,22.07,ESE,109,0.0,0.0,65,0.00,,---,0.00,VWS V13.01,2013-03-10 08:33:00,
2013-03-10 00:38:00,48.3,37.1,22.07,ESE,109,0.0,0.0,65,0.00,,---,0.00,VWS V13.01,2013-03-10 08:38:00,
2013-03-10 00:43:00,48.2,37.0,22.07,ESE,109,0.0,0.0,65,0.00,,---,0.00,VWS V13.01,2013-03-10 08:43:00,
2013-03-10 00:48:00,47.7,36.5,22.07,ESE,109,0.0,0.0,65,0.00,,---,0.00,VWS V13.01,2013-03-10 08:48:00,
2013-03-10 00:53:00,47.4,37.0,22.08,ESE,109,0.0,0.0,67,0.00,,---,0.00,VWS V13.01,2013-03-10 08:53:00,
2013-03-10 00:58:00,47.1,36.7,22.08,ESE,109,0.0,0.0,67,0.00,,---,0.00,VWS V13.01,2013-03-10 08:58:00,
2013-03-10 01:03:00,47.0,36.6,22.09,ESE,109,0.0,0.0,67,0.00,,---,0.00,VWS V13.01,2013-03-10 09:03:00,
2013-03-10 01:08:00,47.0,36.6,22.08,ESE,109,0.0,3.0,67,0.00,,---,0.00,VWS V13.01,2013-03-10 09:08:00,
2013-03-10 01:13:00,47.0,37.0,22.08,ESE,109,0.0,3.0,68,0.00,,---,0.00,VWS V13.01,2013-03-10 09:13:00,
2013-03-10 01:18:00,46.7,36.7,22.08,ESE,109,0.0,3.0,68,0.00,,---,0.00,VWS V13.01,2013-03-10 09:18:00,
2013-03-10 01:23:00,46.7,36.7,22.09,ESE,109,0.0,3.0,68,0.00,,---,0.00,VWS V13.01,2013-03-10 09:23:00,
2013-03-10 01:28:00,46.6,37.0,22.09,ESE,109,0.0,3.0,69,0.00,,---,0.00,VWS V13.01,2013-03-10 09:28:00,
2013-03-10 01:33:00,46.6,37.0,22.09,ESE,109,0.0,0.0,69,0.00,,---,0.00,VWS V13.01,2013-03-10 09:33:00,
2013-03-10 01:38:00,46.4,36.8,22.09,ESE,109,1.0,3.0,69,0.00,,---,0.00,VWS V13.01,2013-03-10 09:38:00,
2013-03-10 01:43:00,46.4,36.8,22.09,ESE,109,1.0,3.0,69,0.00,,---,0.00,VWS V13.01,2013-03-10 09:43:00,
2013-03-10 01:48:00,46.3,36.7,22.09,ESE,109,0.0,3.0,69,0.00,,---,0.00,VWS V13.01,2013-03-10 09:48:00,
2013-03-10 01:53:00,46.2,36.6,22.09,ESE,109,0.0,3.0,69,0.00,,---,0.00,VWS V13.01,2013-03-10 09:53:00,
2013-03-10 01:58:00,46.2,37.3,22.09,ESE,109,0.0,3.0,71,0.00,,---,0.00,VWS V13.01,2013-03-10 09:58:00,
2013-03-10 03:03:00,46.3,37.4,22.09,ESE,109,0.0,2.0,71,0.00,,---,0.00,VWS V13.01,2013-03-10 10:03:00,
2013-03-10 03:08:00,46.3,37.4,22.09,ESE,109,0.0,2.0,71,0.00,,---,0.00,VWS V13.01,2013-03-10 10:08:00,
2013-03-10 03:13:00,46.2,37.7,22.10,ESE,109,0.0,2.0,72,0.00,,---,0.00,VWS V13.01,2013-03-10 10:13:00,
2013-03-10 03:18:00,46.0,37.5,22.09,ESE,109,0.0,2.0,72,0.00,,---,0.00,VWS V13.01,2013-03-10 10:18:00,
2013-03-10 03:23:00,45.7,36.8,22.10,ESE,109,0.0,2.0,71,0.00,,---,0.00,VWS V13.01,2013-03-10 10:23:00,
2013-03-10 03:28:00,45.7,37.2,22.09,ESE,109,0.0,2.0,72,0.00,,---,0.00,VWS V13.01,2013-03-10 10:28:00,
2013-03-10 03:33:00,45.3,37.2,22.09,ESE,109,0.0,0.0,73,0.00,,---,0.00,VWS V13.01,2013-03-10 10:33:00,
2013-03-10 03:38:00,45.0,36.9,22.10,ESE,109,0.0,0.0,73,0.00,,---,0.00,VWS V13.01,2013-03-10 10:38:00,
2013-03-10 03:43:00,44.7,36.6,22.10,ESE,109,0.0,0.0,73,0.00,,---,0.00,VWS V13.01,2013-03-10 10:43:00,
2013-03-10 03:48:00,44.4,36.7,22.10,ESE,109,0.0,0.0,74,0.00,,---,0.00,VWS V13.01,2013-03-10 10:48:00,
2013-03-10 03:53:00,44.3,37.2,22.10,ESE,109,0.0,0.0,76,0.00,,---,0.00,VWS V13.01,2013-03-10 10:53:00,
2013-03-10 03:58:00,44.0,36.6,22.10,ESE,109,0.0,0.0,75,0.00,,---,0.00,VWS V13.01,2013-03-10 10:58:00,
2013-03-10 04:03:00,43.7,36.3,22.10,ESE,109,0.0,0.0,75,0.00,,---,0.00,VWS V13.01,2013-03-10 11:03:00,
2013-03-10 04:08:00,43.4,36.3,22.10,ESE,109,0.0,0.0,76,0.00,,---,0.00,VWS V13.01,2013-03-10 11:08:00,
2013-03-10 04:13:00,43.4,36.3,22.10,ESE,109,0.0,0.0,76,0.00,,---,0.00,VWS V13.01,2013-03-10 11:13:00,
2013-03-10 04:18:00,43.1,36.4,22.10,ESE,109,0.0,0.0,77,0.00,,---,0.00,VWS V13.01,2013-03-10 11:18:00,
2013-03-10 04:23:00,42.9,36.2,22.10,ESE,109,0.0,0.0,77,0.00,,---,0.00,VWS V13.01,2013-03-10 11:23:00,
2013-03-10 04:28:00,42.9,36.2,22.10,ESE,109,0.0,0.0,77,0.00,,---,0.00,VWS V13.01,2013-03-10 11:28:00,
2013-03-10 04:33:00,42.6,36.2,22.10,ESE,109,0.0,0.0,78,0.00,,---,0.00,VWS V13.01,2013-03-10 11:33:00,
2013-03-10 04:38:00,42.5,36.1,22.10,ESE,109,0.0,0.0,78,0.00,,---,0.00,VWS V13.01,2013-03-10 11:38:00,
2013-03-10 04:43:00,42.3,36.3,22.09,ESE,109,0.0,0.0,79,0.00,,---,0.00,VWS V13.01,2013-03-10 11:43:00,
2013-03-10 04:48:00,42.5,36.5,22.09,ESE,109,0.0,0.0,79,0.00,,---,0.00,VWS V13.01,2013-03-10 11:48:00,
2013-03-10 04:53:00,42.5,36.5,22.10,ESE,109,0.0,0.0,79,0.00,,---,0.00,VWS V13.01,2013-03-10 11:53:00,
2013-03-10 04:58:00,42.4,36.4,22.10,ESE,109,0.0,0.0,79,0.00,,---,0.00,VWS V13.01,2013-03-10 11:58:00,
2013-03-10 05:03:00,42.2,36.2,22.10,ESE,109,0.0,0.0,79,0.00,,---,0.00,VWS V13.01,2013-03-10 12:03:00,
2013-03-10 05:08:00,42.2,36.8,22.10,ESE,109,0.0,0.0,81,0.00,,---,0.00,VWS V13.01,2013-03-10 12:08:00,
2013-03-10 05:13:00,42.1,36.7,22.11,ESE,109,0.0,0.0,81,0.00,,---,0.00,VWS V13.01,2013-03-10 12:13:00,
2013-03-10 05:18:00,41.8,36.7,22.11,ESE,109,0.0,0.0,82,0.00,,---,0.00,VWS V13.01,2013-03-10 12:18:00,
2013-03-10 05:23:00,42.1,37.6,22.11,ESE,109,1.0,2.0,84,0.00,,---,0.00,VWS V13.01,2013-03-10 12:23:00,
2013-03-10 05:28:00,42.5,38.0,22.12,ESE,109,0.0,3.0,84,0.00,,---,0.00,VWS V13.01,2013-03-10 12:28:00,
2013-03-10 05:34:00,42.6,38.1,22.11,ESE,109,0.0,0.0,84,0.00,,---,0.00,VWS V13.01,2013-03-10 12:34:00,
2013-03-10 05:39:00,42.6,38.4,22.11,ESE,109,0.0,2.0,85,0.00,,---,0.00,VWS V13.01,2013-03-10 12:39:00,
2013-03-10 05:44:00,42.7,38.8,22.11,ESE,109,0.0,2.0,86,0.00,,---,0.00,VWS V13.01,2013-03-10 12:44:00,
2013-03-10 05:49:00,42.9,39.0,22.11,ESE,109,0.0,2.0,86,0.00,,---,0.00,VWS V13.01,2013-03-10 12:49:00,
2013-03-10 05:54:00,43.1,39.2,22.11,ESE,109,2.0,3.0,86,0.00,,---,0.00,VWS V13.01,2013-03-10 12:54:00,
2013-03-10 05:59:00,43.3,39.4,22.11,ESE,108,2.0,3.0,86,0.00,,---,0.00,VWS V13.01,2013-03-10 12:59:00,
2013-03-10 06:04:00,43.3,39.4,22.12,ESE,108,1.0,1.0,86,0.00,,---,0.00,VWS V13.01,2013-03-10 13:04:00,
2013-03-10 06:09:00,43.4,39.8,22.12,ESE,108,0.0,3.0,87,0.00,,---,0.00,VWS V13.01,2013-03-10 13:09:00,
2013-03-10 06:14:00,43.5,39.9,22.11,ESE,108,0.0,3.0,87,0.00,,---,0.00,VWS V13.01,2013-03-10 13:14:00,
2013-03-10 06:19:00,43.5,40.2,22.12,ESE,108,1.0,3.0,88,0.00,,---,0.00,VWS V13.01,2013-03-10 13:19:00,
2013-03-10 06:24:00,43.6,40.0,22.11,ESE,108,1.0,3.0,87,0.00,,---,0.00,VWS V13.01,2013-03-10 13:24:00,
2013-03-10 06:29:00,43.6,40.0,22.11,ESE,108,3.0,4.0,87,0.00,,---,0.00,VWS V13.01,2013-03-10 13:29:00,
2013-03-10 06:34:00,43.5,39.9,22.12,ESE,107,0.0,3.0,87,0.00,,---,0.00,VWS V13.01,2013-03-10 13:34:00,
2013-03-10 06:39:00,43.4,40.1,22.12,ESE,107,2.0,3.0,88,0.00,,---,0.00,VWS V13.01,2013-03-10 13:39:00,
2013-03-10 06:44:00,43.3,39.7,22.12,ESE,107,2.0,3.0,87,0.00,,---,0.00,VWS V13.01,2013-03-10 13:44:00,
2013-03-10 06:49:00,43.3,40.0,22.12,ESE,107,1.0,4.0,88,0.00,,---,0.00,VWS V13.01,2013-03-10 13:49:00,
2013-03-10 06:54:00,43.2,39.6,22.12,ESE,107,3.0,4.0,87,0.00,,---,0.00,VWS V13.01,2013-03-10 13:54:00,
2013-03-10 06:59:00,43.2,39.9,22.12,ESE,107,2.0,5.0,88,0.00,,---,0.00,VWS V13.01,2013-03-10 13:59:00,
2013-03-10 07:04:00,43.2,39.6,22.12,ESE,106,0.0,4.0,87,0.00,,---,0.00,VWS V13.01,2013-03-10 14:04:00,
2013-03-10 07:09:00,43.1,39.8,22.13,ESE,106,0.0,4.0,88,0.00,,---,0.00,VWS V13.01,2013-03-10 14:09:00,
2013-03-10 07:14:00,43.0,39.7,22.13,ESE,106,0.0,4.0,88,0.00,,---,0.00,VWS V13.01,2013-03-10 14:14:00,
2013-03-10 07:19:00,43.0,39.7,22.14,ESE,106,0.0,4.0,88,0.00,,---,0.00,VWS V13.01,2013-03-10 14:19:00,
2013-03-10 07:24:00,43.1,39.8,22.14,ESE,106,1.0,4.0,88,0.00,,---,0.00,VWS V13.01,2013-03-10 14:24:00,
2013-03-10 07:29:00,43.2,39.9,22.13,ESE,106,2.0,4.0,88,0.00,,---,0.00,VWS V13.01,2013-03-10 14:29:00,
2013-03-10 07:34:00,43.2,39.9,22.14,ESE,106,1.0,3.0,88,0.00,,---,0.00,VWS V13.01,2013-03-10 14:34:00,
2013-03-10 07:39:00,43.0,39.7,22.14,ESE,106,0.0,3.0,88,0.00,,---,0.00,VWS V13.01,2013-03-10 14:39:00,
2013-03-10 07:44:00,43.0,39.7,22.14,East,100,0.0,3.0,88,0.00,,---,0.00,VWS V13.01,2013-03-10 14:44:00,
2013-03-10 07:49:00,42.9,39.3,22.14,East,99,2.0,3.0,87,0.00,,---,0.00,VWS V13.01,2013-03-10 14:49:00,
2013-03-10 07:54:00,42.9,39.3,22.14,East,99,0.0,3.0,87,0.00,,---,0.00,VWS V13.01,2013-03-10 14:54:00,
2013-03-10 07:59:00,42.9,39.0,22.14,East,97,1.0,4.0,86,0.00,,---,0.00,VWS V13.01,2013-03-10 14:59:00,
2013-03-10 08:04:00,43.1,39.2,22.15,East,97,0.0,2.0,86,0.00,,---,0.00,VWS V13.01,2013-03-10 15:04:00,
2013-03-10 08:09:00,43.1,39.2,22.15,East,97,0.0,2.0,86,0.00,,---,0.00,VWS V13.01,2013-03-10 15:09:00,
2013-03-10 08:14:00,43.2,39.3,22.15,East,97,0.0,2.0,86,0.00,,---,0.00,VWS V13.01,2013-03-10 15:14:00,
2013-03-10 08:19:00,43.4,39.2,22.15,East,97,0.0,2.0,85,0.00,,---,0.00,VWS V13.01,2013-03-10 15:19:00,
2013-03-10 08:24:00,43.6,39.4,22.15,East,97,0.0,2.0,85,0.00,,---,0.00,VWS V13.01,2013-03-10 15:24:00,
2013-03-10 08:29:00,44.0,39.8,22.15,East,97,0.0,2.0,85,0.00,,---,0.00,VWS V13.01,2013-03-10 15:29:00,
2013-03-10 08:34:00,44.3,40.1,22.15,East,97,0.0,0.0,85,0.00,,---,0.00,VWS V13.01,2013-03-10 15:34:00,
2013-03-10 08:39:00,44.6,39.8,22.16,East,97,0.0,0.0,83,0.00,,---,0.00,VWS V13.01,2013-03-10 15:39:00,
2013-03-10 08:44:00,45.1,39.9,22.15,East,97,0.0,0.0,82,0.00,,---,0.00,VWS V13.01,2013-03-10 15:44:00,
2013-03-10 08:49:00,45.5,40.0,22.15,East,97,0.0,0.0,81,0.00,,---,0.00,VWS V13.01,2013-03-10 15:49:00,
2013-03-10 08:54:00,46.0,40.2,22.15,East,97,0.0,0.0,80,0.00,,---,0.00,VWS V13.01,2013-03-10 15:54:00,
2013-03-10 08:59:00,46.5,40.7,22.15,East,97,0.0,0.0,80,0.00,,---,0.00,VWS V13.01,2013-03-10 15:59:00,
2013-03-10 09:04:00,47.1,40.9,22.15,East,97,0.0,0.0,79,0.00,,---,0.00,VWS V13.01,2013-03-10 16:04:00,
2013-03-10 09:10:00,47.5,40.7,22.15,East,97,0.0,0.0,77,0.00,,---,0.00,VWS V13.01,2013-03-10 16:10:00,
2013-03-10 09:15:00,48.1,41.2,22.15,East,98,0.0,0.0,77,0.00,,---,0.00,VWS V13.01,2013-03-10 16:15:00,
2013-03-10 09:20:00,48.7,41.8,22.16,East,98,0.0,0.0,77,0.00,,---,0.00,VWS V13.01,2013-03-10 16:20:00,
2013-03-10 09:25:00,49.3,42.4,22.15,East,98,0.0,0.0,77,0.00,,---,0.00,VWS V13.01,2013-03-10 16:25:00,
2013-03-10 09:30:00,49.8,42.9,22.16,East,98,0.0,0.0,77,0.00,,---,0.00,VWS V13.01,2013-03-10 16:30:00,
2013-03-10 09:35:00,50.3,43.7,22.16,East,98,0.0,0.0,78,0.00,,---,0.00,VWS V13.01,2013-03-10 16:35:00,
2013-03-10 09:40:00,51.0,44.4,22.15,East,98,0.0,0.0,78,0.00,,---,0.00,VWS V13.01,2013-03-10 16:40:00,
2013-03-10 09:45:00,51.6,44.6,22.15,ESE,105,0.0,0.0,77,0.00,,---,0.00,VWS V13.01,2013-03-10 16:45:00,
2013-03-10 09:50:00,52.0,45.0,22.16,ESE,122,0.0,0.0,77,0.00,,---,0.00,VWS V13.01,2013-03-10 16:50:00,
2013-03-10 09:55:00,52.3,45.7,22.16,SE,125,0.0,0.0,78,0.00,,---,0.00,VWS V13.01,2013-03-10 16:55:00,
2013-03-10 10:00:00,52.5,45.5,22.15,SSE,151,0.0,0.0,77,0.00,,---,0.00,VWS V13.01,2013-03-10 17:00:00,
2013-03-10 10:05:00,52.7,45.7,22.15,SE,137,0.0,0.0,77,0.00,,---,0.00,VWS V13.01,2013-03-10 17:05:00,
2013-03-10 10:10:00,53.1,46.1,22.15,SE,130,0.0,0.0,77,0.00,,---,0.00,VWS V13.01,2013-03-10 17:10:00,
2013-03-10 10:15:00,53.4,46.4,22.15,SE,128,0.0,0.0,77,0.00,,---,0.00,VWS V13.01,2013-03-10 17:15:00,
2013-03-10 10:20:00,53.7,46.7,22.15,ESE,121,0.0,0.0,77,0.00,,---,0.00,VWS V13.01,2013-03-10 17:20:00,
2013-03-10 10:25:00,54.0,47.0,22.15,SE,140,0.0,0.0,77,0.00,,---,0.00,VWS V13.01,2013-03-10 17:25:00,
2013-03-10 10:30:00,54.2,47.2,22.15,SSE,156,0.0,0.0,77,0.00,,---,0.00,VWS V13.01,2013-03-10 17:30:00,
2013-03-10 10:35:00,54.3,47.2,22.15,SE,145,0.0,0.0,77,0.00,,---,0.00,VWS V13.01,2013-03-10 17:35:00,
2013-03-10 10:40:00,54.7,47.6,22.14,South,185,0.0,0.0,77,0.00,,---,0.00,VWS V13.01,2013-03-10 17:40:00,
2013-03-10 10:45:00,55.0,47.9,22.13,SE,142,0.0,0.0,77,0.00,,---,0.00,VWS V13.01,2013-03-10 17:45:00,
2013-03-10 10:50:00,55.5,48.4,22.13,SE,145,0.0,0.0,77,0.00,,---,0.00,VWS V13.01,2013-03-10 17:50:00,
2013-03-10 10:55:00,55.9,48.8,22.13,SSE,165,0.0,0.0,77,0.00,,---,0.00,VWS V13.01,2013-03-10 17:55:00,
2013-03-10 11:00:00,56.1,48.7,22.13,SSE,163,0.0,0.0,76,0.00,,---,0.00,VWS V13.01,2013-03-10 18:00:00,
2013-03-10 11:05:00,56.6,49.1,22.13,SSW,209,0.0,0.0,76,0.00,,---,0.00,VWS V13.01,2013-03-10 18:05:00,
2013-03-10 11:10:00,57.0,49.2,22.13,SE,129,0.0,0.0,75,0.00,,---,0.00,VWS V13.01,2013-03-10 18:10:00,
2013-03-10 11:15:00,57.3,49.5,22.12,SSE,155,0.0,0.0,75,0.00,,---,0.00,VWS V13.01,2013-03-10 18:15:00,
2013-03-10 11:20:00,57.8,49.6,22.13,South,190,0.0,0.0,74,0.00,,---,0.00,VWS V13.01,2013-03-10 18:20:00,
2013-03-10 11:25:00,58.3,49.3,22.12,SW,225,0.0,0.0,72,0.00,,---,0.00,VWS V13.01,2013-03-10 18:25:00,
2013-03-10 11:30:00,58.4,49.4,22.12,SE,140,0.0,0.0,72,0.00,,---,0.00,VWS V13.01,2013-03-10 18:30:00,
2013-03-10 11:35:00,58.8,49.4,22.12,SE,134,0.0,0.0,71,0.00,,---,0.00,VWS V13.01,2013-03-10 18:35:00,
2013-03-10 11:40:00,58.9,49.2,22.12,SSE,167,0.0,0.0,70,0.00,,---,0.00,VWS V13.01,2013-03-10 18:40:00,
2013-03-10 11:45:00,59.3,49.5,22.12,SE,145,0.0,0.0,70,0.00,,---,0.00,VWS V13.01,2013-03-10 18:45:00,
2013-03-10 11:50:00,59.8,49.6,22.12,SSW,209,0.0,0.0,69,0.00,,---,0.00,VWS V13.01,2013-03-10 18:50:00,
2013-03-10 11:55:00,60.2,50.4,22.11,SE,137,0.0,0.0,70,0.00,,---,0.00,VWS V13.01,2013-03-10 18:55:00,
2013-03-10 12:00:00,60.7,50.5,22.11,SSE,153,0.0,0.0,69,0.00,,---,0.00,VWS V13.01,2013-03-10 19:00:00,
2013-03-10 12:05:00,61.0,51.2,22.11,SSE,153,0.0,0.0,70,0.00,,---,0.00,VWS V13.01,2013-03-10 19:05:00,
2013-03-10 12:10:00,61.7,50.6,22.11,SE,131,0.0,0.0,67,0.00,,---,0.00,VWS V13.01,2013-03-10 19:10:00,
2013-03-10 12:15:00,61.7,50.6,22.11,SE,131,0.0,0.0,67,0.00,,---,0.00,VWS V13.01,2013-03-10 19:15:00,
2013-03-10 12:20:00,61.7,50.6,22.11,SE,132,0.0,0.0,67,0.00,,---,0.00,VWS V13.01,2013-03-10 19:20:00,
2013-03-10 12:25:00,61.8,50.7,22.11,SE,131,0.0,0.0,67,0.00,,---,0.00,VWS V13.01,2013-03-10 19:25:00,
2013-03-10 12:30:00,61.9,50.8,22.10,SE,130,0.0,0.0,67,0.00,,---,0.00,VWS V13.01,2013-03-10 19:30:00,
2013-03-10 12:35:00,62.4,50.9,22.10,SE,127,0.0,0.0,66,0.00,,---,0.00,VWS V13.01,2013-03-10 19:35:00,
2013-03-10 12:41:00,62.6,51.1,22.10,SE,128,0.0,0.0,66,0.00,,---,0.00,VWS V13.01,2013-03-10 19:41:00,
2013-03-10 12:46:00,63.0,51.1,22.09,SE,127,0.0,0.0,65,0.00,,---,0.00,VWS V13.01,2013-03-10 19:46:00,
2013-03-10 12:51:00,63.1,50.3,22.09,SE,127,0.0,0.0,63,0.00,,---,0.00,VWS V13.01,2013-03-10 19:51:00,
2013-03-10 12:56:00,63.2,50.8,22.09,SE,131,0.0,0.0,64,0.00,,---,0.00,VWS V13.01,2013-03-10 19:56:00,
2013-03-10 13:01:00,63.1,50.3,22.09,SE,131,0.0,0.0,63,0.00,,---,0.00,VWS V13.01,2013-03-10 20:01:00,
2013-03-10 13:06:00,63.2,50.4,22.08,SE,131,0.0,0.0,63,0.00,,---,0.00,VWS V13.01,2013-03-10 20:06:00,
2013-03-10 13:11:00,63.1,49.9,22.08,SE,131,0.0,0.0,62,0.00,,---,0.00,VWS V13.01,2013-03-10 20:11:00,
2013-03-10 13:16:00,63.5,49.8,22.08,SSW,196,0.0,0.0,61,0.00,,---,0.00,VWS V13.01,2013-03-10 20:16:00,
2013-03-10 13:21:00,64.1,50.8,22.07,South,174,0.0,0.0,62,0.00,,---,0.00,VWS V13.01,2013-03-10 20:21:00,
2013-03-10 13:27:00,64.6,51.3,22.07,South,180,0.0,0.0,62,0.00,,---,0.00,VWS V13.01,2013-03-10 20:27:00,
2013-03-10 13:32:00,64.8,50.2,22.07,SE,127,0.0,0.0,59,0.00,,---,0.00,VWS V13.01,2013-03-10 20:32:00,
2013-03-10 13:37:00,65.2,52.3,22.07,SE,124,0.0,0.0,63,0.00,,---,0.00,VWS V13.01,2013-03-10 20:37:00,
2013-03-10 13:42:00,65.7,51.5,22.06,SE,140,0.0,0.0,60,0.00,,---,0.00,VWS V13.01,2013-03-10 20:42:00,
2013-03-10 13:48:00,65.9,51.6,22.06,SE,140,0.0,0.0,60,0.00,,---,0.00,VWS V13.01,2013-03-10 20:48:00,
2013-03-10 13:53:00,66.4,51.2,22.06,SE,140,0.0,0.0,58,0.00,,---,0.00,VWS V13.01,2013-03-10 20:53:00,
2013-03-10 13:58:00,66.6,51.4,22.05,ESE,121,0.0,0.0,58,0.00,,---,0.00,VWS V13.01,2013-03-10 20:58:00,
2013-03-10 14:04:00,66.7,51.9,22.05,ESE,120,0.0,0.0,59,0.00,,---,0.00,VWS V13.01,2013-03-10 21:04:00,
2013-03-10 14:09:00,67.1,51.8,22.05,SE,125,0.0,0.0,58,0.00,,---,0.00,VWS V13.01,2013-03-10 21:09:00,
2013-03-10 14:14:00,67.2,50.5,22.05,SSE,159,0.0,0.0,55,0.00,,---,0.00,VWS V13.01,2013-03-10 21:14:00,
2013-03-10 14:20:00,67.1,50.4,22.04,SE,137,0.0,0.0,55,0.00,,---,0.00,VWS V13.01,2013-03-10 21:20:00,
2013-03-10 14:25:00,67.4,50.7,22.04,SSE,150,0.0,0.0,55,0.00,,---,0.00,VWS V13.01,2013-03-10 21:25:00,
2013-03-10 14:30:00,67.6,50.9,22.04,SE,132,0.0,0.0,55,0.00,,---,0.00,VWS V13.01,2013-03-10 21:30:00,
2013-03-10 14:35:00,67.6,49.4,22.04,SE,142,0.0,0.0,52,0.00,,---,0.00,VWS V13.01,2013-03-10 21:35:00,
2013-03-10 14:40:00,67.7,51.0,22.03,SSW,208,0.0,0.0,55,0.00,,---,0.00,VWS V13.01,2013-03-10 21:40:00,
2013-03-10 14:45:00,67.8,51.1,22.03,SSW,203,0.0,0.0,55,0.00,,---,0.00,VWS V13.01,2013-03-10 21:45:00,
2013-03-10 14:51:00,67.9,51.2,22.03,SSE,158,0.0,0.0,55,0.00,,---,0.00,VWS V13.01,2013-03-10 21:51:00,
2013-03-10 14:56:00,68.0,49.7,22.03,South,189,0.0,0.0,52,0.00,,---,0.00,VWS V13.01,2013-03-10 21:56:00,
2013-03-10 15:01:00,67.7,50.0,22.03,SSW,198,0.0,0.0,53,0.00,,---,0.00,VWS V13.01,2013-03-10 22:01:00,
2013-03-10 15:06:00,67.8,50.1,22.03,SSW,208,0.0,0.0,53,0.00,,---,0.00,VWS V13.01,2013-03-10 22:06:00,
2013-03-10 15:11:00,68.0,49.2,22.03,SSW,211,0.0,0.0,51,0.00,,---,0.00,VWS V13.01,2013-03-10 22:11:00,
2013-03-10 15:17:00,68.0,49.2,22.03,SSW,210,0.0,0.0,51,0.00,,---,0.00,VWS V13.01,2013-03-10 22:17:00,
2013-03-10 15:22:00,68.3,50.0,22.03,SE,134,0.0,0.0,52,0.00,,---,0.00,VWS V13.01,2013-03-10 22:22:00,
2013-03-10 15:27:00,68.0,49.2,22.03,South,183,0.0,0.0,51,0.00,,---,0.00,VWS V13.01,2013-03-10 22:27:00,
2013-03-10 15:32:00,68.1,47.7,22.03,SE,142,0.0,0.0,48,0.00,,---,0.00,VWS V13.01,2013-03-10 22:32:00,
2013-03-10 15:37:00,68.1,47.7,22.02,SE,129,0.0,0.0,48,0.00,,---,0.00,VWS V13.01,2013-03-10 22:37:00,
2013-03-10 15:43:00,68.0,47.6,22.02,SE,128,0.0,0.0,48,0.00,,---,0.00,VWS V13.01,2013-03-10 22:43:00,
2013-03-10 15:48:00,68.2,47.2,22.02,South,184,0.0,0.0,47,0.00,,---,0.00,VWS V13.01,2013-03-10 22:48:00,
2013-03-10 15:53:00,67.8,46.3,22.02,South,185,0.0,0.0,46,0.00,,---,0.00,VWS V13.01,2013-03-10 22:53:00,
2013-03-10 15:58:00,68.2,47.2,22.02,South,191,0.0,0.0,47,0.00,,---,0.00,VWS V13.01,2013-03-10 22:58:00,
2013-03-10 16:03:00,68.3,46.7,22.01,South,190,0.0,0.0,46,0.00,,---,0.00,VWS V13.01,2013-03-10 23:03:00,
2013-03-10 16:08:00,68.2,46.7,22.01,South,189,0.0,0.0,46,0.00,,---,0.00,VWS V13.01,2013-03-10 23:08:00,
2013-03-10 16:13:00,68.1,46.6,22.01,SE,142,0.0,0.0,46,0.00,,---,0.00,VWS V13.01,2013-03-10 23:13:00,
2013-03-10 16:19:00,68.0,45.9,22.01,ESE,117,0.0,0.0,45,0.00,,---,0.00,VWS V13.01,2013-03-10 23:19:00,
2013-03-10 16:24:00,68.0,45.9,22.00,ESE,119,0.0,0.0,45,0.00,,---,0.00,VWS V13.01,2013-03-10 23:24:00,
2013-03-10 16:29:00,67.9,45.8,22.00,ESE,119,0.0,0.0,45,0.00,,---,0.00,VWS V13.01,2013-03-10 23:29:00,
2013-03-10 16:34:00,67.8,45.1,22.00,ESE,120,0.0,0.0,44,0.00,,---,0.00,VWS V13.01,2013-03-10 23:34:00,
2013-03-10 16:39:00,67.7,45.6,22.00,SE,125,0.0,0.0,45,0.00,,---,0.00,VWS V13.01,2013-03-10 23:39:00,
2013-03-10 16:44:00,67.8,45.7,22.00,SE,128,0.0,0.0,45,0.00,,---,0.00,VWS V13.01,2013-03-10 23:44:00,
2013-03-10 16:49:00,67.7,46.2,22.00,SE,126,0.0,0.0,46,0.00,,---,0.00,VWS V13.01,2013-03-10 23:49:00,
2013-03-10 16:54:00,67.5,45.4,21.99,ESE,120,0.0,0.0,45,0.00,,---,0.00,VWS V13.01,2013-03-10 23:54:00,
2013-03-10 16:59:00,67.3,45.8,22.00,ESE,115,0.0,0.0,46,0.00,,---,0.00,VWS V13.01,2013-03-10 23:59:00,
2013-03-10 17:04:00,67.0,46.7,22.00,ESE,115,0.0,0.0,48,0.00,,---,0.00,VWS V13.01,2013-03-11 00:04:00,
2013-03-10 17:09:00,66.9,46.6,21.99,ESE,118,0.0,0.0,48,0.00,,---,0.00,VWS V13.01,2013-03-11 00:09:00,
2013-03-10 17:14:00,66.8,45.4,21.99,ESE,116,0.0,0.0,46,0.00,,---,0.00,VWS V13.01,2013-03-11 00:14:00,
2013-03-10 17:20:00,66.6,45.8,21.99,ESE,116,0.0,0.0,47,0.00,,---,0.00,VWS V13.01,2013-03-11 00:20:00,
2013-03-10 17:25:00,66.4,46.1,21.99,ESE,116,0.0,0.0,48,0.00,,---,0.00,VWS V13.01,2013-03-11 00:25:00,
2013-03-10 17:30:00,66.3,46.0,21.98,ESE,116,0.0,0.0,48,0.00,,---,0.00,VWS V13.01,2013-03-11 00:30:00,
2013-03-10 17:35:00,66.0,45.8,21.98,ESE,116,0.0,0.0,48,0.00,,---,0.00,VWS V13.01,2013-03-11 00:35:00,
2013-03-10 17:40:00,66.0,45.8,21.98,ESE,116,0.0,0.0,48,0.00,,---,0.00,VWS V13.01,2013-03-11 00:40:00,
2013-03-10 17:45:00,65.9,46.2,21.98,ESE,116,0.0,0.0,49,0.00,,---,0.00,VWS V13.01,2013-03-11 00:45:00,
2013-03-10 17:51:00,65.7,46.0,21.98,ESE,116,0.0,0.0,49,0.00,,---,0.00,VWS V13.01,2013-03-11 00:51:00,
2013-03-10 17:56:00,65.6,45.4,21.98,ESE,116,0.0,0.0,48,0.00,,---,0.00,VWS V13.01,2013-03-11 00:56:00,
2013-03-10 18:01:00,65.5,45.8,21.98,ESE,116,0.0,0.0,49,0.00,,---,0.00,VWS V13.01,2013-03-11 01:01:00,
2013-03-10 18:06:00,65.4,45.8,21.98,ESE,116,0.0,0.0,49,0.00,,---,0.00,VWS V13.01,2013-03-11 01:06:00,
2013-03-10 18:11:00,65.2,45.0,21.98,ESE,116,0.0,0.0,48,0.00,,---,0.00,VWS V13.01,2013-03-11 01:11:00,
2013-03-10 18:17:00,65.1,45.5,21.98,ESE,116,0.0,0.0,49,0.00,,---,0.00,VWS V13.01,2013-03-11 01:17:00,
2013-03-10 18:22:00,64.9,45.3,21.98,ESE,116,0.0,0.0,49,0.00,,---,0.00,VWS V13.01,2013-03-11 01:22:00,
2013-03-10 18:27:00,64.7,45.7,21.99,ESE,116,0.0,0.0,50,0.00,,---,0.00,VWS V13.01,2013-03-11 01:27:00,
2013-03-10 18:32:00,64.5,46.5,21.99,ESE,116,0.0,0.0,52,0.00,,---,0.00,VWS V13.01,2013-03-11 01:32:00,
2013-03-10 18:37:00,64.4,46.4,21.99,ESE,117,0.0,0.0,52,0.00,,---,0.00,VWS V13.01,2013-03-11 01:37:00,
2013-03-10 18:42:00,64.3,46.3,21.99,ESE,117,0.0,0.0,52,0.00,,---,0.00,VWS V13.01,2013-03-11 01:42:00,
2013-03-10 18:47:00,64.1,46.6,21.99,ESE,117,0.0,0.0,53,0.00,,---,0.00,VWS V13.01,2013-03-11 01:47:00,
2013-03-10 18:52:00,63.9,46.5,21.99,ESE,117,0.0,0.0,53,0.00,,---,0.00,VWS V13.01,2013-03-11 01:52:00,
2013-03-10 18:57:00,63.7,46.3,21.99,ESE,117,0.0,0.0,53,0.00,,---,0.00,VWS V13.01,2013-03-11 01:57:00,
2013-03-10 19:02:00,63.5,46.1,21.99,ESE,117,0.0,0.0,53,0.00,,---,0.00,VWS V13.01,2013-03-11 02:02:00,
2013-03-10 19:08:00,63.3,46.4,21.99,ESE,117,0.0,0.0,54,0.00,,---,0.00,VWS V13.01,2013-03-11 02:08:00,
2013-03-10 19:13:00,63.1,46.2,21.98,ESE,117,0.0,0.0,54,0.00,,---,0.00,VWS V13.01,2013-03-11 02:13:00,
2013-03-10 19:18:00,62.7,46.3,21.99,ESE,117,0.0,0.0,55,0.00,,---,0.00,VWS V13.01,2013-03-11 02:18:00,
2013-03-10 19:23:00,62.3,46.0,21.99,ESE,117,0.0,0.0,55,0.00,,---,0.00,VWS V13.01,2013-03-11 02:23:00,
2013-03-10 19:28:00,61.9,46.0,21.98,ESE,117,0.0,0.0,56,0.00,,---,0.00,VWS V13.01,2013-03-11 02:28:00,
2013-03-10 19:33:00,61.5,46.1,21.99,ESE,117,0.0,0.0,57,0.00,,---,0.00,VWS V13.01,2013-03-11 02:33:00,
2013-03-10 19:38:00,61.1,45.3,21.98,ESE,117,0.0,0.0,56,0.00,,---,0.00,VWS V13.01,2013-03-11 02:38:00,
2013-03-10 19:43:00,60.4,45.6,21.99,ESE,117,0.0,0.0,58,0.00,,---,0.00,VWS V13.01,2013-03-11 02:43:00,
2013-03-10 19:48:00,60.0,45.2,21.99,ESE,117,0.0,0.0,58,0.00,,---,0.00,VWS V13.01,2013-03-11 02:48:00,
2013-03-10 19:53:00,59.5,45.2,21.99,ESE,117,0.0,0.0,59,0.00,,---,0.00,VWS V13.01,2013-03-11 02:53:00,
2013-03-10 19:58:00,59.0,44.7,21.99,ESE,117,0.0,0.0,59,0.00,,---,0.00,VWS V13.01,2013-03-11 02:58:00,
2013-03-10 20:03:00,58.5,44.7,21.99,ESE,117,0.0,0.0,60,0.00,,---,0.00,VWS V13.01,2013-03-11 03:03:00,
2013-03-10 20:08:00,58.0,45.1,21.99,ESE,117,0.0,0.0,62,0.00,,---,0.00,VWS V13.01,2013-03-11 03:08:00,
2013-03-10 20:13:00,57.5,44.6,21.99,ESE,117,0.0,0.0,62,0.00,,---,0.00,VWS V13.01,2013-03-11 03:13:00,
2013-03-10 20:18:00,57.1,45.0,21.99,ESE,117,0.0,0.0,64,0.00,,---,0.00,VWS V13.01,2013-03-11 03:18:00,
2013-03-10 20:23:00,56.8,44.3,21.99,ESE,117,0.0,0.0,63,0.00,,---,0.00,VWS V13.01,2013-03-11 03:23:00,
2013-03-10 20:28:00,56.5,44.5,21.99,ESE,117,0.0,0.0,64,0.00,,---,0.00,VWS V13.01,2013-03-11 03:28:00,
2013-03-10 20:33:00,56.4,44.0,21.99,ESE,117,0.0,0.0,63,0.00,,---,0.00,VWS V13.01,2013-03-11 03:33:00,
2013-03-10 20:39:00,56.3,43.9,21.99,ESE,117,0.0,0.0,63,0.00,,---,0.00,VWS V13.01,2013-03-11 03:39:00,
2013-03-10 20:44:00,56.1,44.9,21.99,ESE,117,0.0,0.0,66,0.00,,---,0.00,VWS V13.01,2013-03-11 03:44:00,
2013-03-10 20:49:00,55.9,44.7,22.00,ESE,117,0.0,0.0,66,0.00,,---,0.00,VWS V13.01,2013-03-11 03:49:00,
2013-03-10 20:54:00,55.6,44.8,21.99,ESE,117,0.0,0.0,67,0.00,,---,0.00,VWS V13.01,2013-03-11 03:54:00,
2013-03-10 20:59:00,55.3,44.2,22.00,ESE,117,0.0,0.0,66,0.00,,---,0.00,VWS V13.01,2013-03-11 03:59:00,
2013-03-10 21:00:00,55.3,44.5,21.99,ESE,117,0.0,0.0,67,0.00,,---,0.00,VWS V13.01,2013-03-11 04:00:00,
2013-03-10 21:02:00,55.2,44.5,21.99,ESE,117,0.0,0.0,67,0.00,,---,0.00,VWS V13.01,2013-03-11 04:02:00,
2013-03-10 21:04:00,55.2,44.5,22.00,ESE,117,0.0,0.0,67,0.00,,---,0.00,VWS V13.01,2013-03-11 04:04:00,
2013-03-10 21:10:00,54.8,44.5,22.00,ESE,117,0.0,0.0,68,0.00,,---,0.00,VWS V13.01,2013-03-11 04:10:00,
2013-03-10 21:15:00,54.6,44.3,22.00,ESE,117,0.0,0.0,68,0.00,,---,0.00,VWS V13.01,2013-03-11 04:15:00,
2013-03-10 21:20:00,54.5,44.2,22.00,ESE,117,0.0,0.0,68,0.00,,---,0.00,VWS V13.01,2013-03-11 04:20:00,
2013-03-10 21:25:00,54.2,44.3,22.00,ESE,117,0.0,0.0,69,0.00,,---,0.00,VWS V13.01,2013-03-11 04:25:00,
2013-03-10 21:30:00,54.2,44.6,22.00,ESE,117,0.0,0.0,70,0.00,,---,0.00,VWS V13.01,2013-03-11 04:30:00,
2013-03-10 21:35:00,54.1,44.5,22.00,ESE,117,0.0,0.0,70,0.00,,---,0.00,VWS V13.01,2013-03-11 04:35:00,
2013-03-10 21:40:00,54.0,44.8,21.99,ESE,117,0.0,0.0,71,0.00,,---,0.00,VWS V13.01,2013-03-11 04:40:00,
2013-03-10 21:47:00,53.9,44.7,22.00,ESE,117,0.0,0.0,71,0.00,,---,0.00,VWS V13.01,2013-03-11 04:47:00,
2013-03-10 21:52:00,53.8,44.6,22.00,ESE,117,0.0,0.0,71,0.00,,---,0.00,VWS V13.01,2013-03-11 04:52:00,
2013-03-10 21:57:00,53.7,44.9,22.00,ESE,117,0.0,0.0,72,0.00,,---,0.00,VWS V13.01,2013-03-11 04:57:00,
2013-03-10 22:02:00,53.5,44.7,22.00,ESE,117,0.0,0.0,72,0.00,,---,0.00,VWS V13.01,2013-03-11 05:02:00,
2013-03-10 22:07:00,53.6,44.4,22.00,ESE,117,0.0,0.0,71,0.00,,---,0.00,VWS V13.01,2013-03-11 05:07:00,
2013-03-10 22:12:00,53.4,44.6,22.00,ESE,117,0.0,0.0,72,0.00,,---,0.00,VWS V13.01,2013-03-11 05:12:00,
2013-03-10 22:17:00,53.3,44.9,22.00,ESE,117,0.0,0.0,73,0.00,,---,0.00,VWS V13.01,2013-03-11 05:17:00,
2013-03-10 22:22:00,52.9,44.5,22.01,ESE,117,0.0,0.0,73,0.00,,---,0.00,VWS V13.01,2013-03-11 05:22:00,
2013-03-10 22:27:00,52.7,44.3,22.01,ESE,117,0.0,0.0,73,0.00,,---,0.00,VWS V13.01,2013-03-11 05:27:00,
2013-03-10 22:33:00,52.5,44.1,22.00,ESE,117,0.0,0.0,73,0.00,,---,0.00,VWS V13.01,2013-03-11 05:33:00,
2013-03-10 22:38:00,52.2,43.8,22.01,ESE,117,0.0,0.0,73,0.00,,---,0.00,VWS V13.01,2013-03-11 05:38:00,
2013-03-10 22:43:00,52.0,44.0,22.01,ESE,117,0.0,0.0,74,0.00,,---,0.00,VWS V13.01,2013-03-11 05:43:00,
2013-03-10 22:48:00,52.0,43.6,22.01,ESE,117,0.0,0.0,73,0.00,,---,0.00,VWS V13.01,2013-03-11 05:48:00,
2013-03-10 22:53:00,52.1,44.1,22.01,ESE,117,0.0,0.0,74,0.00,,---,0.00,VWS V13.01,2013-03-11 05:53:00,
2013-03-10 22:58:00,51.8,43.8,22.01,ESE,117,0.0,0.0,74,0.00,,---,0.00,VWS V13.01,2013-03-11 05:58:00,
2013-03-10 23:03:00,51.5,43.5,22.01,ESE,117,0.0,0.0,74,0.00,,---,0.00,VWS V13.01,2013-03-11 06:03:00,
2013-03-10 23:08:00,51.3,43.3,22.02,ESE,117,0.0,0.0,74,0.00,,---,0.00,VWS V13.01,2013-03-11 06:08:00,
2013-03-10 23:13:00,51.1,43.1,22.02,ESE,117,0.0,0.0,74,0.00,,---,0.00,VWS V13.01,2013-03-11 06:13:00,
2013-03-10 23:18:00,51.0,43.4,22.01,ESE,117,0.0,0.0,75,0.00,,---,0.00,VWS V13.01,2013-03-11 06:18:00,
2013-03-10 23:23:00,50.6,42.6,22.02,ESE,117,0.0,0.0,74,0.00,,---,0.00,VWS V13.01,2013-03-11 06:23:00,
2013-03-10 23:28:00,50.7,43.1,22.01,ESE,117,0.0,0.0,75,0.00,,---,0.00,VWS V13.01,2013-03-11 06:28:00,
2013-03-10 23:34:00,50.6,43.0,22.02,ESE,117,0.0,0.0,75,0.00,,---,0.00,VWS V13.01,2013-03-11 06:34:00,
2013-03-10 23:39:00,50.4,42.8,22.02,ESE,117,0.0,0.0,75,0.00,,---,0.00,VWS V13.01,2013-03-11 06:39:00,
2013-03-10 23:44:00,50.4,43.1,22.02,ESE,117,0.0,0.0,76,0.00,,---,0.00,VWS V13.01,2013-03-11 06:44:00,
2013-03-10 23:49:00,50.5,43.2,22.02,ESE,117,0.0,0.0,76,0.00,,---,0.00,VWS V13.01,2013-03-11 06:49:00,
2013-03-10 23:54:00,50.6,43.7,22.02,ESE,117,0.0,0.0,77,0.00,,---,0.00,VWS V13.01,2013-03-11 06:54:00,
2013-03-10 23:59:00,50.5,43.2,22.02,ESE,117,0.0,0.0,76,0.00,,---,0.00,VWS V13.01,2013-03-11 06:59:00,